sensor_id;sensor_type;location;lat;lon;timestamp;P1;durP1;ratioP1;P2;durP2;ratioP2
21558;SDS011;10940;48.890;8.240;2022-08-18T00:01:31;0.97;;;0.97;;
21558;SDS011;10940;48.890;8.240;2022-08-18T00:03:57;1.93;;;1.83;;
21558;SDS011;10940;48.890;8.240;2022-08-18T00:06:24;1.93;;;1.77;;
21558;SDS011;10940;48.890;8.240;2022-08-18T00:08:51;1.53;;;1.43;;
21558;SDS011;10940;48.890;8.240;2022-08-18T00:11:16;1.80;;;1.70;;
21558;SDS011;10940;48.890;8.240;2022-08-18T00:13:42;1.43;;;1.33;;
21558;SDS011;10940;48.890;8.240;2022-08-18T00:16:07;2.30;;;1.60;;
21558;SDS011;10940;48.890;8.240;2022-08-18T00:18:33;2.90;;;2.33;;
21558;SDS011;10940;48.890;8.240;2022-08-18T00:20:59;1.73;;;1.60;;
21558;SDS011;10940;48.890;8.240;2022-08-18T00:23:26;1.40;;;1.17;;
21558;SDS011;10940;48.890;8.240;2022-08-18T00:25:53;0.73;;;0.73;;
21558;SDS011;10940;48.890;8.240;2022-08-18T00:28:19;1.23;;;1.13;;
21558;SDS011;10940;48.890;8.240;2022-08-18T00:30:44;3.03;;;2.00;;
21558;SDS011;10940;48.890;8.240;2022-08-18T00:33:10;1.30;;;1.23;;
21558;SDS011;10940;48.890;8.240;2022-08-18T00:35:36;3.13;;;2.07;;
21558;SDS011;10940;48.890;8.240;2022-08-18T00:38:04;2.40;;;1.57;;
21558;SDS011;10940;48.890;8.240;2022-08-18T00:40:53;2.50;;;1.53;;
21558;SDS011;10940;48.890;8.240;2022-08-18T00:43:27;1.80;;;1.70;;
21558;SDS011;10940;48.890;8.240;2022-08-18T00:46:14;2.00;;;1.53;;
21558;SDS011;10940;48.890;8.240;2022-08-18T00:48:45;1.47;;;1.37;;
21558;SDS011;10940;48.890;8.240;2022-08-18T00:51:14;2.53;;;1.10;;
21558;SDS011;10940;48.890;8.240;2022-08-18T00:54:13;1.90;;;1.80;;
21558;SDS011;10940;48.890;8.240;2022-08-18T00:56:49;2.10;;;1.80;;
21558;SDS011;10940;48.890;8.240;2022-08-18T00:59:19;1.50;;;1.40;;
21558;SDS011;10940;48.890;8.240;2022-08-18T01:01:53;1.33;;;1.23;;
21558;SDS011;10940;48.890;8.240;2022-08-18T01:04:31;2.00;;;1.90;;
21558;SDS011;10940;48.890;8.240;2022-08-18T01:07:04;3.67;;;1.93;;
21558;SDS011;10940;48.890;8.240;2022-08-18T01:09:34;4.63;;;2.47;;
21558;SDS011;10940;48.890;8.240;2022-08-18T01:12:00;2.63;;;1.17;;
21558;SDS011;10940;48.890;8.240;2022-08-18T01:14:26;1.23;;;1.13;;
21558;SDS011;10940;48.890;8.240;2022-08-18T01:16:51;1.90;;;1.33;;
21558;SDS011;10940;48.890;8.240;2022-08-18T01:19:36;1.70;;;1.60;;
21558;SDS011;10940;48.890;8.240;2022-08-18T01:22:40;1.10;;;1.10;;
21558;SDS011;10940;48.890;8.240;2022-08-18T01:25:16;1.93;;;1.20;;
21558;SDS011;10940;48.890;8.240;2022-08-18T01:28:04;2.23;;;1.93;;
21558;SDS011;10940;48.890;8.240;2022-08-18T01:30:30;1.20;;;1.10;;
21558;SDS011;10940;48.890;8.240;2022-08-18T01:32:58;2.03;;;1.77;;
21558;SDS011;10940;48.890;8.240;2022-08-18T01:35:25;2.10;;;1.80;;
21558;SDS011;10940;48.890;8.240;2022-08-18T01:37:51;2.50;;;2.23;;
21558;SDS011;10940;48.890;8.240;2022-08-18T01:40:18;2.40;;;1.90;;
21558;SDS011;10940;48.890;8.240;2022-08-18T01:42:45;3.03;;;2.20;;
21558;SDS011;10940;48.890;8.240;2022-08-18T01:45:12;1.37;;;1.30;;
21558;SDS011;10940;48.890;8.240;2022-08-18T01:47:39;2.17;;;1.80;;
21558;SDS011;10940;48.890;8.240;2022-08-18T01:50:05;1.63;;;1.53;;
21558;SDS011;10940;48.890;8.240;2022-08-18T01:52:32;1.50;;;1.10;;
21558;SDS011;10940;48.890;8.240;2022-08-18T01:54:59;2.83;;;2.13;;
21558;SDS011;10940;48.890;8.240;2022-08-18T01:57:26;1.20;;;1.10;;
21558;SDS011;10940;48.890;8.240;2022-08-18T01:59:53;1.30;;;1.20;;
21558;SDS011;10940;48.890;8.240;2022-08-18T02:02:26;1.43;;;1.33;;
21558;SDS011;10940;48.890;8.240;2022-08-18T02:04:56;2.50;;;2.00;;
21558;SDS011;10940;48.890;8.240;2022-08-18T02:07:26;1.83;;;1.73;;
21558;SDS011;10940;48.890;8.240;2022-08-18T02:09:52;1.67;;;1.43;;
21558;SDS011;10940;48.890;8.240;2022-08-18T02:12:18;1.93;;;1.50;;
21558;SDS011;10940;48.890;8.240;2022-08-18T02:14:44;1.67;;;1.57;;
21558;SDS011;10940;48.890;8.240;2022-08-18T02:17:11;1.57;;;1.47;;
21558;SDS011;10940;48.890;8.240;2022-08-18T02:19:39;1.57;;;1.47;;
21558;SDS011;10940;48.890;8.240;2022-08-18T02:22:07;3.80;;;1.90;;
21558;SDS011;10940;48.890;8.240;2022-08-18T02:24:34;2.10;;;1.87;;
21558;SDS011;10940;48.890;8.240;2022-08-18T02:27:00;1.80;;;1.70;;
21558;SDS011;10940;48.890;8.240;2022-08-18T02:29:26;2.43;;;1.30;;
21558;SDS011;10940;48.890;8.240;2022-08-18T02:31:52;5.73;;;2.13;;
21558;SDS011;10940;48.890;8.240;2022-08-18T02:34:17;4.23;;;2.07;;
21558;SDS011;10940;48.890;8.240;2022-08-18T02:36:43;2.10;;;1.87;;
21558;SDS011;10940;48.890;8.240;2022-08-18T02:39:09;1.80;;;1.63;;
21558;SDS011;10940;48.890;8.240;2022-08-18T02:41:35;4.77;;;2.53;;
21558;SDS011;10940;48.890;8.240;2022-08-18T02:44:01;8.00;;;2.77;;
21558;SDS011;10940;48.890;8.240;2022-08-18T02:46:27;1.47;;;1.20;;
21558;SDS011;10940;48.890;8.240;2022-08-18T02:48:52;2.60;;;2.27;;
21558;SDS011;10940;48.890;8.240;2022-08-18T02:51:19;2.37;;;2.00;;
21558;SDS011;10940;48.890;8.240;2022-08-18T02:53:44;2.03;;;1.57;;
21558;SDS011;10940;48.890;8.240;2022-08-18T02:56:21;1.43;;;1.33;;
21558;SDS011;10940;48.890;8.240;2022-08-18T02:58:55;2.00;;;1.80;;
21558;SDS011;10940;48.890;8.240;2022-08-18T03:01:24;1.93;;;1.83;;
21558;SDS011;10940;48.890;8.240;2022-08-18T03:03:53;3.03;;;1.83;;
21558;SDS011;10940;48.890;8.240;2022-08-18T03:06:20;2.17;;;1.73;;
21558;SDS011;10940;48.890;8.240;2022-08-18T03:08:47;2.00;;;1.83;;
21558;SDS011;10940;48.890;8.240;2022-08-18T03:11:16;2.20;;;2.00;;
21558;SDS011;10940;48.890;8.240;2022-08-18T03:13:44;1.30;;;1.23;;
21558;SDS011;10940;48.890;8.240;2022-08-18T03:16:10;3.57;;;2.40;;
21558;SDS011;10940;48.890;8.240;2022-08-18T03:18:36;2.40;;;2.20;;
21558;SDS011;10940;48.890;8.240;2022-08-18T03:21:05;2.60;;;2.30;;
21558;SDS011;10940;48.890;8.240;2022-08-18T03:23:36;1.73;;;1.63;;
21558;SDS011;10940;48.890;8.240;2022-08-18T03:26:09;2.00;;;1.80;;
21558;SDS011;10940;48.890;8.240;2022-08-18T03:28:36;1.90;;;1.73;;
21558;SDS011;10940;48.890;8.240;2022-08-18T03:31:02;1.73;;;1.63;;
21558;SDS011;10940;48.890;8.240;2022-08-18T03:33:28;3.37;;;1.60;;
21558;SDS011;10940;48.890;8.240;2022-08-18T03:35:54;2.13;;;1.97;;
21558;SDS011;10940;48.890;8.240;2022-08-18T03:38:19;2.30;;;2.10;;
21558;SDS011;10940;48.890;8.240;2022-08-18T03:40:51;3.77;;;2.47;;
21558;SDS011;10940;48.890;8.240;2022-08-18T03:43:17;2.10;;;1.90;;
21558;SDS011;10940;48.890;8.240;2022-08-18T03:45:43;2.60;;;2.40;;
21558;SDS011;10940;48.890;8.240;2022-08-18T03:48:09;2.23;;;2.03;;
21558;SDS011;10940;48.890;8.240;2022-08-18T03:50:35;2.63;;;2.37;;
21558;SDS011;10940;48.890;8.240;2022-08-18T03:53:01;2.40;;;1.70;;
21558;SDS011;10940;48.890;8.240;2022-08-18T03:55:29;3.53;;;2.03;;
21558;SDS011;10940;48.890;8.240;2022-08-18T03:57:59;2.77;;;2.00;;
21558;SDS011;10940;48.890;8.240;2022-08-18T04:00:27;1.43;;;1.33;;
21558;SDS011;10940;48.890;8.240;2022-08-18T04:02:54;1.80;;;1.70;;
21558;SDS011;10940;48.890;8.240;2022-08-18T04:05:21;1.63;;;1.53;;
21558;SDS011;10940;48.890;8.240;2022-08-18T04:07:46;1.93;;;1.77;;
21558;SDS011;10940;48.890;8.240;2022-08-18T04:10:12;2.87;;;1.77;;
21558;SDS011;10940;48.890;8.240;2022-08-18T04:12:39;2.00;;;1.83;;
21558;SDS011;10940;48.890;8.240;2022-08-18T04:15:06;3.83;;;2.17;;
21558;SDS011;10940;48.890;8.240;2022-08-18T04:17:33;2.90;;;2.50;;
21558;SDS011;10940;48.890;8.240;2022-08-18T04:19:59;2.20;;;2.00;;
21558;SDS011;10940;48.890;8.240;2022-08-18T04:22:24;1.93;;;1.83;;
21558;SDS011;10940;48.890;8.240;2022-08-18T04:24:50;2.03;;;1.83;;
21558;SDS011;10940;48.890;8.240;2022-08-18T04:27:17;12.70;;;2.50;;
21558;SDS011;10940;48.890;8.240;2022-08-18T04:29:44;2.87;;;2.43;;
21558;SDS011;10940;48.890;8.240;2022-08-18T04:32:10;1.93;;;1.77;;
21558;SDS011;10940;48.890;8.240;2022-08-18T04:34:36;1.90;;;1.70;;
21558;SDS011;10940;48.890;8.240;2022-08-18T04:37:02;3.37;;;2.10;;
21558;SDS011;10940;48.890;8.240;2022-08-18T04:39:28;3.00;;;2.00;;
21558;SDS011;10940;48.890;8.240;2022-08-18T04:41:54;1.90;;;1.73;;
21558;SDS011;10940;48.890;8.240;2022-08-18T04:44:19;1.93;;;1.80;;
21558;SDS011;10940;48.890;8.240;2022-08-18T04:46:49;1.77;;;1.67;;
21558;SDS011;10940;48.890;8.240;2022-08-18T04:49:16;1.60;;;1.43;;
21558;SDS011;10940;48.890;8.240;2022-08-18T04:51:47;3.73;;;1.50;;
21558;SDS011;10940;48.890;8.240;2022-08-18T04:54:32;3.20;;;2.50;;
21558;SDS011;10940;48.890;8.240;2022-08-18T04:57:13;1.63;;;1.50;;
21558;SDS011;10940;48.890;8.240;2022-08-18T04:59:44;2.40;;;1.90;;
21558;SDS011;10940;48.890;8.240;2022-08-18T05:02:10;2.33;;;1.77;;
21558;SDS011;10940;48.890;8.240;2022-08-18T05:04:38;2.73;;;1.67;;
21558;SDS011;10940;48.890;8.240;2022-08-18T05:07:05;7.63;;;1.50;;
21558;SDS011;10940;48.890;8.240;2022-08-18T05:09:36;4.73;;;2.30;;
21558;SDS011;10940;48.890;8.240;2022-08-18T05:12:02;1.50;;;1.40;;
21558;SDS011;10940;48.890;8.240;2022-08-18T05:14:29;6.07;;;2.13;;
21558;SDS011;10940;48.890;8.240;2022-08-18T05:17:02;3.40;;;2.30;;
21558;SDS011;10940;48.890;8.240;2022-08-18T05:19:28;1.60;;;1.50;;
21558;SDS011;10940;48.890;8.240;2022-08-18T05:21:55;7.50;;;2.03;;
21558;SDS011;10940;48.890;8.240;2022-08-18T05:24:22;3.00;;;2.20;;
21558;SDS011;10940;48.890;8.240;2022-08-18T05:26:52;2.33;;;2.10;;
21558;SDS011;10940;48.890;8.240;2022-08-18T05:29:19;1.60;;;1.50;;
21558;SDS011;10940;48.890;8.240;2022-08-18T05:31:46;2.10;;;1.90;;
21558;SDS011;10940;48.890;8.240;2022-08-18T05:34:13;2.10;;;1.70;;
21558;SDS011;10940;48.890;8.240;2022-08-18T05:39:23;1.37;;;1.27;;
21558;SDS011;10940;48.890;8.240;2022-08-18T05:42:07;4.30;;;1.70;;
21558;SDS011;10940;48.890;8.240;2022-08-18T05:44:39;4.27;;;2.07;;
21558;SDS011;10940;48.890;8.240;2022-08-18T05:47:12;1.77;;;1.67;;
21558;SDS011;10940;48.890;8.240;2022-08-18T05:49:38;3.50;;;2.43;;
21558;SDS011;10940;48.890;8.240;2022-08-18T05:52:11;2.07;;;1.87;;
21558;SDS011;10940;48.890;8.240;2022-08-18T05:54:41;3.47;;;2.30;;
21558;SDS011;10940;48.890;8.240;2022-08-18T05:57:31;1.70;;;1.60;;
21558;SDS011;10940;48.890;8.240;2022-08-18T06:00:06;3.07;;;2.13;;
21558;SDS011;10940;48.890;8.240;2022-08-18T06:02:43;2.70;;;1.87;;
21558;SDS011;10940;48.890;8.240;2022-08-18T06:05:24;1.73;;;1.63;;
21558;SDS011;10940;48.890;8.240;2022-08-18T06:08:11;4.43;;;2.17;;
21558;SDS011;10940;48.890;8.240;2022-08-18T06:10:45;1.53;;;1.43;;
21558;SDS011;10940;48.890;8.240;2022-08-18T06:13:12;3.93;;;1.57;;
21558;SDS011;10940;48.890;8.240;2022-08-18T06:15:48;2.30;;;2.10;;
21558;SDS011;10940;48.890;8.240;2022-08-18T06:23:41;1.83;;;1.63;;
21558;SDS011;10940;48.890;8.240;2022-08-18T06:26:23;10.40;;;1.77;;
21558;SDS011;10940;48.890;8.240;2022-08-18T06:29:05;5.00;;;2.80;;
21558;SDS011;10940;48.890;8.240;2022-08-18T06:31:35;1.40;;;1.30;;
21558;SDS011;10940;48.890;8.240;2022-08-18T06:34:28;2.73;;;1.80;;
21558;SDS011;10940;48.890;8.240;2022-08-18T06:42:05;4.20;;;2.37;;
21558;SDS011;10940;48.890;8.240;2022-08-18T06:44:42;7.17;;;2.47;;
21558;SDS011;10940;48.890;8.240;2022-08-18T06:47:19;2.00;;;1.87;;
21558;SDS011;10940;48.890;8.240;2022-08-18T06:52:34;2.10;;;1.90;;
21558;SDS011;10940;48.890;8.240;2022-08-18T06:55:15;6.13;;;2.10;;
21558;SDS011;10940;48.890;8.240;2022-08-18T06:57:54;3.00;;;1.80;;
21558;SDS011;10940;48.890;8.240;2022-08-18T07:00:23;1.87;;;1.77;;
21558;SDS011;10940;48.890;8.240;2022-08-18T07:02:58;1.67;;;1.57;;
21558;SDS011;10940;48.890;8.240;2022-08-18T07:05:31;1.77;;;1.57;;
21558;SDS011;10940;48.890;8.240;2022-08-18T07:08:18;3.10;;;1.70;;
21558;SDS011;10940;48.890;8.240;2022-08-18T07:10:54;1.87;;;1.77;;
21558;SDS011;10940;48.890;8.240;2022-08-18T07:13:22;2.10;;;1.93;;
21558;SDS011;10940;48.890;8.240;2022-08-18T07:16:13;2.07;;;1.87;;
21558;SDS011;10940;48.890;8.240;2022-08-18T07:18:42;3.03;;;1.97;;
21558;SDS011;10940;48.890;8.240;2022-08-18T07:21:08;2.83;;;2.30;;
21558;SDS011;10940;48.890;8.240;2022-08-18T07:23:51;1.57;;;1.47;;
21558;SDS011;10940;48.890;8.240;2022-08-18T07:26:24;1.90;;;1.77;;
21558;SDS011;10940;48.890;8.240;2022-08-18T07:28:50;1.57;;;1.43;;
21558;SDS011;10940;48.890;8.240;2022-08-18T07:31:26;2.20;;;2.03;;
21558;SDS011;10940;48.890;8.240;2022-08-18T07:34:11;2.27;;;2.07;;
21558;SDS011;10940;48.890;8.240;2022-08-18T07:36:46;2.03;;;1.67;;
21558;SDS011;10940;48.890;8.240;2022-08-18T07:39:27;2.47;;;1.50;;
21558;SDS011;10940;48.890;8.240;2022-08-18T07:50:18;2.40;;;2.07;;
21558;SDS011;10940;48.890;8.240;2022-08-18T07:56:06;2.00;;;1.90;;
21558;SDS011;10940;48.890;8.240;2022-08-18T07:58:51;3.17;;;2.27;;
21558;SDS011;10940;48.890;8.240;2022-08-18T08:01:36;2.30;;;2.10;;
21558;SDS011;10940;48.890;8.240;2022-08-18T08:04:12;2.00;;;1.63;;
21558;SDS011;10940;48.890;8.240;2022-08-18T08:07:04;1.70;;;1.60;;
21558;SDS011;10940;48.890;8.240;2022-08-18T08:14:52;2.60;;;2.20;;
21558;SDS011;10940;48.890;8.240;2022-08-18T08:23:15;2.53;;;2.30;;
21558;SDS011;10940;48.890;8.240;2022-08-18T08:26:39;2.30;;;1.90;;
21558;SDS011;10940;48.890;8.240;2022-08-18T08:34:35;1.73;;;1.63;;
21558;SDS011;10940;48.890;8.240;2022-08-18T08:37:25;3.67;;;2.50;;
21558;SDS011;10940;48.890;8.240;2022-08-18T08:40:02;4.97;;;3.07;;
21558;SDS011;10940;48.890;8.240;2022-08-18T08:45:33;2.27;;;2.07;;
21558;SDS011;10940;48.890;8.240;2022-08-18T08:50:48;4.97;;;2.00;;
21558;SDS011;10940;48.890;8.240;2022-08-18T08:53:42;1.63;;;1.50;;
21558;SDS011;10940;48.890;8.240;2022-08-18T08:56:14;1.63;;;1.50;;
21558;SDS011;10940;48.890;8.240;2022-08-18T08:58:43;1.43;;;1.33;;
21558;SDS011;10940;48.890;8.240;2022-08-18T09:14:44;3.33;;;2.47;;
21558;SDS011;10940;48.890;8.240;2022-08-18T09:17:44;5.57;;;2.20;;
21558;SDS011;10940;48.890;8.240;2022-08-18T09:20:57;2.90;;;2.60;;
21558;SDS011;10940;48.890;8.240;2022-08-18T09:23:45;2.33;;;2.00;;
21558;SDS011;10940;48.890;8.240;2022-08-18T09:26:22;3.90;;;2.23;;
21558;SDS011;10940;48.890;8.240;2022-08-18T09:29:13;2.53;;;2.33;;
21558;SDS011;10940;48.890;8.240;2022-08-18T09:31:39;3.90;;;2.73;;
21558;SDS011;10940;48.890;8.240;2022-08-18T09:34:20;2.97;;;2.63;;
21558;SDS011;10940;48.890;8.240;2022-08-18T09:39:34;8.30;;;2.97;;
21558;SDS011;10940;48.890;8.240;2022-08-18T09:45:03;3.57;;;3.20;;
21558;SDS011;10940;48.890;8.240;2022-08-18T10:07:44;3.03;;;2.73;;
21558;SDS011;10940;48.890;8.240;2022-08-18T10:10:42;5.17;;;2.67;;
21558;SDS011;10940;48.890;8.240;2022-08-18T10:16:29;6.10;;;3.57;;
21558;SDS011;10940;48.890;8.240;2022-08-18T10:19:18;4.63;;;2.97;;
21558;SDS011;10940;48.890;8.240;2022-08-18T10:22:02;3.20;;;2.67;;
21558;SDS011;10940;48.890;8.240;2022-08-18T10:24:47;4.97;;;3.27;;
21558;SDS011;10940;48.890;8.240;2022-08-18T10:27:35;3.07;;;2.80;;
21558;SDS011;10940;48.890;8.240;2022-08-18T10:33:01;4.47;;;3.53;;
21558;SDS011;10940;48.890;8.240;2022-08-18T10:40:59;4.73;;;3.73;;
21558;SDS011;10940;48.890;8.240;2022-08-18T10:43:39;5.50;;;3.70;;
21558;SDS011;10940;48.890;8.240;2022-08-18T10:46:13;3.53;;;3.23;;
21558;SDS011;10940;48.890;8.240;2022-08-18T10:48:56;4.07;;;3.47;;
21558;SDS011;10940;48.890;8.240;2022-08-18T10:51:30;2.80;;;2.53;;
21558;SDS011;10940;48.890;8.240;2022-08-18T10:54:37;7.30;;;3.67;;
21558;SDS011;10940;48.890;8.240;2022-08-18T10:57:21;5.17;;;3.90;;
21558;SDS011;10940;48.890;8.240;2022-08-18T11:00:06;6.47;;;3.97;;
21558;SDS011;10940;48.890;8.240;2022-08-18T11:05:17;5.73;;;4.60;;
21558;SDS011;10940;48.890;8.240;2022-08-18T11:07:47;7.60;;;4.70;;
21558;SDS011;10940;48.890;8.240;2022-08-18T11:10:17;12.87;;;5.67;;
21558;SDS011;10940;48.890;8.240;2022-08-18T11:18:08;8.07;;;5.37;;
21558;SDS011;10940;48.890;8.240;2022-08-18T11:24:06;5.53;;;4.50;;
21558;SDS011;10940;48.890;8.240;2022-08-18T11:26:33;6.43;;;5.27;;
21558;SDS011;10940;48.890;8.240;2022-08-18T11:29:18;6.60;;;4.60;;
21558;SDS011;10940;48.890;8.240;2022-08-18T11:31:51;4.37;;;3.87;;
21558;SDS011;10940;48.890;8.240;2022-08-18T11:34:28;8.33;;;5.17;;
21558;SDS011;10940;48.890;8.240;2022-08-18T11:36:59;7.20;;;4.53;;
21558;SDS011;10940;48.890;8.240;2022-08-18T11:39:28;5.93;;;4.73;;
21558;SDS011;10940;48.890;8.240;2022-08-18T11:41:55;6.97;;;4.70;;
21558;SDS011;10940;48.890;8.240;2022-08-18T11:44:23;6.93;;;4.33;;
21558;SDS011;10940;48.890;8.240;2022-08-18T11:46:55;9.07;;;4.80;;
21558;SDS011;10940;48.890;8.240;2022-08-18T11:49:44;6.00;;;4.97;;
21558;SDS011;10940;48.890;8.240;2022-08-18T11:52:22;4.93;;;4.37;;
21558;SDS011;10940;48.890;8.240;2022-08-18T11:54:57;5.17;;;3.73;;
21558;SDS011;10940;48.890;8.240;2022-08-18T12:03:19;4.73;;;3.60;;
21558;SDS011;10940;48.890;8.240;2022-08-18T12:05:58;6.17;;;3.87;;
21558;SDS011;10940;48.890;8.240;2022-08-18T12:08:36;5.10;;;4.57;;
21558;SDS011;10940;48.890;8.240;2022-08-18T12:11:16;7.27;;;4.27;;
21558;SDS011;10940;48.890;8.240;2022-08-18T12:13:45;5.07;;;4.60;;
21558;SDS011;10940;48.890;8.240;2022-08-18T12:16:14;5.90;;;3.97;;
21558;SDS011;10940;48.890;8.240;2022-08-18T12:19:00;7.03;;;4.90;;
21558;SDS011;10940;48.890;8.240;2022-08-18T12:21:26;7.30;;;3.87;;
21558;SDS011;10940;48.890;8.240;2022-08-18T12:23:52;12.10;;;4.30;;
21558;SDS011;10940;48.890;8.240;2022-08-18T12:26:18;5.17;;;4.27;;
21558;SDS011;10940;48.890;8.240;2022-08-18T12:28:44;4.30;;;3.90;;
21558;SDS011;10940;48.890;8.240;2022-08-18T12:31:10;8.57;;;5.53;;
21558;SDS011;10940;48.890;8.240;2022-08-18T12:33:35;7.37;;;4.80;;
21558;SDS011;10940;48.890;8.240;2022-08-18T12:36:02;4.73;;;4.10;;
21558;SDS011;10940;48.890;8.240;2022-08-18T12:38:28;9.50;;;5.13;;
21558;SDS011;10940;48.890;8.240;2022-08-18T12:40:55;9.13;;;4.67;;
21558;SDS011;10940;48.890;8.240;2022-08-18T12:43:21;6.40;;;4.47;;
21558;SDS011;10940;48.890;8.240;2022-08-18T12:45:46;5.57;;;4.50;;
21558;SDS011;10940;48.890;8.240;2022-08-18T12:48:12;5.40;;;4.50;;
21558;SDS011;10940;48.890;8.240;2022-08-18T12:50:38;6.77;;;4.63;;
21558;SDS011;10940;48.890;8.240;2022-08-18T12:53:04;4.57;;;4.07;;
21558;SDS011;10940;48.890;8.240;2022-08-18T12:55:33;5.37;;;4.30;;
21558;SDS011;10940;48.890;8.240;2022-08-18T12:58:03;5.30;;;4.50;;
21558;SDS011;10940;48.890;8.240;2022-08-18T13:00:29;5.03;;;4.53;;
21558;SDS011;10940;48.890;8.240;2022-08-18T13:02:55;5.40;;;4.23;;
21558;SDS011;10940;48.890;8.240;2022-08-18T13:05:21;7.40;;;4.43;;
21558;SDS011;10940;48.890;8.240;2022-08-18T13:07:47;4.43;;;3.87;;
21558;SDS011;10940;48.890;8.240;2022-08-18T13:10:12;6.57;;;4.70;;
21558;SDS011;10940;48.890;8.240;2022-08-18T13:12:38;5.23;;;4.47;;
21558;SDS011;10940;48.890;8.240;2022-08-18T13:15:04;4.93;;;4.43;;
21558;SDS011;10940;48.890;8.240;2022-08-18T13:17:32;5.23;;;4.63;;
21558;SDS011;10940;48.890;8.240;2022-08-18T13:20:02;4.50;;;4.00;;
21558;SDS011;10940;48.890;8.240;2022-08-18T13:22:31;8.63;;;4.20;;
21558;SDS011;10940;48.890;8.240;2022-08-18T13:24:57;6.03;;;3.80;;
21558;SDS011;10940;48.890;8.240;2022-08-18T13:27:22;4.37;;;3.50;;
21558;SDS011;10940;48.890;8.240;2022-08-18T13:29:48;3.97;;;3.53;;
21558;SDS011;10940;48.890;8.240;2022-08-18T13:32:14;3.47;;;3.07;;
21558;SDS011;10940;48.890;8.240;2022-08-18T13:34:40;4.70;;;4.20;;
21558;SDS011;10940;48.890;8.240;2022-08-18T13:37:06;4.83;;;4.33;;
21558;SDS011;10940;48.890;8.240;2022-08-18T13:39:31;11.73;;;4.00;;
21558;SDS011;10940;48.890;8.240;2022-08-18T13:41:57;4.70;;;3.63;;
21558;SDS011;10940;48.890;8.240;2022-08-18T13:44:22;4.20;;;3.80;;
21558;SDS011;10940;48.890;8.240;2022-08-18T13:46:48;3.93;;;3.63;;
21558;SDS011;10940;48.890;8.240;2022-08-18T13:49:20;5.77;;;4.77;;
21558;SDS011;10940;48.890;8.240;2022-08-18T13:51:47;6.57;;;4.80;;
21558;SDS011;10940;48.890;8.240;2022-08-18T13:54:27;4.30;;;3.60;;
21558;SDS011;10940;48.890;8.240;2022-08-18T13:56:56;5.90;;;3.63;;
21558;SDS011;10940;48.890;8.240;2022-08-18T13:59:22;5.47;;;3.83;;
21558;SDS011;10940;48.890;8.240;2022-08-18T14:01:49;3.80;;;3.37;;
21558;SDS011;10940;48.890;8.240;2022-08-18T14:04:16;5.53;;;3.77;;
21558;SDS011;10940;48.890;8.240;2022-08-18T14:06:41;7.53;;;4.00;;
21558;SDS011;10940;48.890;8.240;2022-08-18T14:09:07;7.33;;;4.00;;
21558;SDS011;10940;48.890;8.240;2022-08-18T14:11:33;5.10;;;4.37;;
21558;SDS011;10940;48.890;8.240;2022-08-18T14:14:01;3.83;;;3.30;;
21558;SDS011;10940;48.890;8.240;2022-08-18T14:16:28;4.00;;;3.60;;
21558;SDS011;10940;48.890;8.240;2022-08-18T14:18:55;4.20;;;3.80;;
21558;SDS011;10940;48.890;8.240;2022-08-18T14:21:56;3.90;;;3.07;;
21558;SDS011;10940;48.890;8.240;2022-08-18T14:24:40;3.60;;;3.27;;
21558;SDS011;10940;48.890;8.240;2022-08-18T14:27:30;3.27;;;2.97;;
21558;SDS011;10940;48.890;8.240;2022-08-18T14:29:58;3.83;;;3.53;;
21558;SDS011;10940;48.890;8.240;2022-08-18T14:32:25;4.87;;;3.50;;
21558;SDS011;10940;48.890;8.240;2022-08-18T14:34:53;3.63;;;3.33;;
21558;SDS011;10940;48.890;8.240;2022-08-18T14:37:23;4.60;;;3.20;;
21558;SDS011;10940;48.890;8.240;2022-08-18T14:39:49;3.77;;;3.40;;
21558;SDS011;10940;48.890;8.240;2022-08-18T14:42:15;3.70;;;3.00;;
21558;SDS011;10940;48.890;8.240;2022-08-18T14:44:43;4.33;;;2.87;;
21558;SDS011;10940;48.890;8.240;2022-08-18T14:47:09;4.17;;;3.20;;
21558;SDS011;10940;48.890;8.240;2022-08-18T14:49:35;5.47;;;2.90;;
21558;SDS011;10940;48.890;8.240;2022-08-18T14:52:00;6.90;;;3.67;;
21558;SDS011;10940;48.890;8.240;2022-08-18T14:54:28;4.90;;;3.47;;
21558;SDS011;10940;48.890;8.240;2022-08-18T14:56:55;4.00;;;3.57;;
21558;SDS011;10940;48.890;8.240;2022-08-18T14:59:20;5.30;;;4.10;;
21558;SDS011;10940;48.890;8.240;2022-08-18T15:01:49;4.60;;;3.10;;
21558;SDS011;10940;48.890;8.240;2022-08-18T15:04:14;4.13;;;3.73;;
21558;SDS011;10940;48.890;8.240;2022-08-18T15:06:41;3.70;;;3.40;;
21558;SDS011;10940;48.890;8.240;2022-08-18T15:09:06;4.67;;;4.10;;
21558;SDS011;10940;48.890;8.240;2022-08-18T15:11:33;7.17;;;4.00;;
21558;SDS011;10940;48.890;8.240;2022-08-18T15:13:59;4.50;;;3.60;;
21558;SDS011;10940;48.890;8.240;2022-08-18T15:16:25;3.77;;;3.43;;
21558;SDS011;10940;48.890;8.240;2022-08-18T15:18:51;4.63;;;3.77;;
21558;SDS011;10940;48.890;8.240;2022-08-18T15:21:17;4.10;;;3.23;;
21558;SDS011;10940;48.890;8.240;2022-08-18T15:24:02;3.83;;;3.17;;
21558;SDS011;10940;48.890;8.240;2022-08-18T15:26:46;13.30;;;3.97;;
21558;SDS011;10940;48.890;8.240;2022-08-18T15:29:13;5.13;;;3.77;;
21558;SDS011;10940;48.890;8.240;2022-08-18T15:31:38;5.60;;;3.40;;
21558;SDS011;10940;48.890;8.240;2022-08-18T15:34:04;5.57;;;3.20;;
21558;SDS011;10940;48.890;8.240;2022-08-18T15:36:30;2.70;;;2.37;;
21558;SDS011;10940;48.890;8.240;2022-08-18T15:38:57;3.13;;;2.83;;
21558;SDS011;10940;48.890;8.240;2022-08-18T15:41:32;5.57;;;2.80;;
21558;SDS011;10940;48.890;8.240;2022-08-18T15:43:58;4.83;;;3.37;;
21558;SDS011;10940;48.890;8.240;2022-08-18T15:46:25;4.33;;;2.77;;
21558;SDS011;10940;48.890;8.240;2022-08-18T15:48:50;3.43;;;3.07;;
21558;SDS011;10940;48.890;8.240;2022-08-18T15:51:16;2.73;;;2.53;;
21558;SDS011;10940;48.890;8.240;2022-08-18T15:53:42;2.83;;;2.63;;
21558;SDS011;10940;48.890;8.240;2022-08-18T15:56:14;3.10;;;2.80;;
21558;SDS011;10940;48.890;8.240;2022-08-18T15:58:41;2.97;;;2.67;;
21558;SDS011;10940;48.890;8.240;2022-08-18T16:01:10;2.93;;;2.63;;
21558;SDS011;10940;48.890;8.240;2022-08-18T16:03:37;2.63;;;2.47;;
21558;SDS011;10940;48.890;8.240;2022-08-18T16:06:03;2.90;;;2.63;;
21558;SDS011;10940;48.890;8.240;2022-08-18T16:08:29;2.70;;;2.50;;
21558;SDS011;10940;48.890;8.240;2022-08-18T16:10:55;3.43;;;2.80;;
21558;SDS011;10940;48.890;8.240;2022-08-18T16:13:21;1.70;;;1.60;;
21558;SDS011;10940;48.890;8.240;2022-08-18T16:15:48;4.23;;;2.93;;
21558;SDS011;10940;48.890;8.240;2022-08-18T16:18:15;2.47;;;2.03;;
21558;SDS011;10940;48.890;8.240;2022-08-18T16:20:42;2.20;;;2.00;;
21558;SDS011;10940;48.890;8.240;2022-08-18T16:23:08;2.27;;;2.07;;
21558;SDS011;10940;48.890;8.240;2022-08-18T16:25:39;2.73;;;2.23;;
21558;SDS011;10940;48.890;8.240;2022-08-18T16:28:05;2.60;;;2.40;;
21558;SDS011;10940;48.890;8.240;2022-08-18T16:30:31;2.23;;;2.03;;
21558;SDS011;10940;48.890;8.240;2022-08-18T16:33:04;4.47;;;2.60;;
21558;SDS011;10940;48.890;8.240;2022-08-18T16:35:31;2.60;;;2.40;;
21558;SDS011;10940;48.890;8.240;2022-08-18T16:38:05;5.77;;;3.00;;
21558;SDS011;10940;48.890;8.240;2022-08-18T16:40:32;2.63;;;2.43;;
21558;SDS011;10940;48.890;8.240;2022-08-18T16:42:58;3.40;;;2.87;;
21558;SDS011;10940;48.890;8.240;2022-08-18T16:45:24;3.97;;;2.83;;
21558;SDS011;10940;48.890;8.240;2022-08-18T16:47:51;7.20;;;3.03;;
21558;SDS011;10940;48.890;8.240;2022-08-18T16:50:18;3.80;;;3.00;;
21558;SDS011;10940;48.890;8.240;2022-08-18T16:52:43;3.37;;;3.03;;
21558;SDS011;10940;48.890;8.240;2022-08-18T16:55:09;3.87;;;3.30;;
21558;SDS011;10940;48.890;8.240;2022-08-18T16:57:39;3.17;;;2.87;;
21558;SDS011;10940;48.890;8.240;2022-08-18T17:00:24;4.33;;;2.50;;
21558;SDS011;10940;48.890;8.240;2022-08-18T17:03:09;7.20;;;3.40;;
21558;SDS011;10940;48.890;8.240;2022-08-18T17:06:07;2.77;;;2.47;;
21558;SDS011;10940;48.890;8.240;2022-08-18T17:08:35;10.30;;;3.97;;
21558;SDS011;10940;48.890;8.240;2022-08-18T17:11:03;3.47;;;2.90;;